Time;durP1;ratioP1;P1;durP2;ratioP2;P2;SDS_P1;SDS_P2;PMS_P1;PMS_P2;Temp;Humidity;BMP_temperature;BMP_pressure;BME280_temperature;BME280_humidity;BME280_pressure;Samples;Min_cycle;Max_cycle;Signal;HPM_P1;HPM_P2
2021/03/01 00:03:21;;;;;;;33.07;22.67;;;;;2.90;102833.00;;;;10468492;28;20185;-75
2021/03/01 00:08:22;;;;;;;42.53;25.07;;;;;2.90;102822.00;;;;10453443;28;20680;-75
2021/03/01 00:13:25;;;;;;;35.67;24.93;;;;;2.90;102819.00;;;;10442614;28;20720;-75
2021/03/01 00:18:26;;;;;;;41.00;26.63;;;;;2.90;102817.00;;;;10442778;28;20596;-75
2021/03/01 00:23:28;;;;;;;52.10;28.03;;;;;2.80;102816.00;;;;10425801;28;20241;-75
2021/03/01 00:28:29;;;;;;;47.87;28.20;;;;;2.80;102822.00;;;;10425469;28;20604;-75
2021/03/01 00:33:30;;;;;;;42.10;28.17;;;;;2.80;102823.00;;;;10408992;28;20286;-75
2021/03/01 00:38:32;;;;;;;45.23;26.30;;;;;2.70;102828.00;;;;10439413;28;20197;-75
2021/03/01 00:43:33;;;;;;;41.93;25.23;;;;;2.60;102826.00;;;;10466834;28;20177;-75
2021/03/01 00:48:35;;;;;;;39.30;25.43;;;;;2.60;102834.00;;;;10449541;28;20201;-75
2021/03/01 00:53:37;;;;;;;45.87;24.53;;;;;2.50;102828.00;;;;10466358;28;20248;-75
2021/03/01 00:58:40;;;;;;;44.40;24.87;;;;;2.40;102818.00;;;;10465277;28;20220;-75
2021/03/01 01:03:41;;;;;;;38.03;24.97;;;;;2.40;102816.00;;;;10482745;28;20221;-75
2021/03/01 01:08:51;;;;;;;38.67;24.50;;;;;2.30;102818.00;;;;10450737;28;20637;-75
2021/03/01 01:13:53;;;;;;;37.47;23.70;;;;;2.10;102818.00;;;;10465228;28;20209;-75
2021/03/01 01:18:54;;;;;;;33.20;21.80;;;;;2.00;102821.00;;;;10481270;28;20280;-75
2021/03/01 01:23:55;;;;;;;29.23;21.17;;;;;1.80;102812.00;;;;10448612;28;20262;-75
2021/03/01 01:28:57;;;;;;;35.63;22.10;;;;;1.70;102818.00;;;;10481552;28;20197;-75
2021/03/01 01:33:58;;;;;;;36.60;22.43;;;;;1.70;102813.00;;;;10464218;28;20202;-75
2021/03/01 01:39:05;;;;;;;36.03;21.27;;;;;1.60;102816.00;;;;10466291;28;20189;-75
2021/03/01 01:44:06;;;;;;;37.27;21.43;;;;;1.50;102815.00;;;;10498062;28;20660;-75
2021/03/01 01:49:08;;;;;;;39.70;22.13;;;;;1.30;102810.00;;;;10480083;28;20239;-75
2021/03/01 01:54:10;;;;;;;36.33;22.83;;;;;1.30;102814.00;;;;10498306;28;20210;-75
2021/03/01 01:59:11;;;;;;;39.70;21.53;;;;;1.20;102807.00;;;;10479840;28;20231;-75
2021/03/01 02:04:22;;;;;;;34.50;21.40;;;;;1.10;102811.00;;;;10446628;28;20679;-75
2021/03/01 02:09:46;;;;;;;33.50;21.27;;;;;1.00;102799.00;;;;10463312;28;20247;-75
2021/03/01 02:15:03;;;;;;;35.77;24.27;;;;;1.10;102808.00;;;;10478034;28;20208;-75
2021/03/01 02:20:08;;;;;;;38.03;22.20;;;;;1.00;102800.00;;;;10521162;28;20271;-75
2021/03/01 02:25:23;;;;;;;36.10;22.97;;;;;0.80;102801.00;;;;10488439;28;20181;-75
2021/03/01 02:30:34;;;;;;;35.63;21.53;;;;;0.80;102794.00;;;;10487533;28;20258;-75
2021/03/01 02:35:40;;;;;;;36.83;22.03;;;;;0.70;102799.00;;;;10498095;28;20186;-75
2021/03/01 02:40:42;;;;;;;37.97;22.33;;;;;0.60;102792.00;;;;10446023;28;20559;-75
2021/03/01 02:45:46;;;;;;;43.07;24.23;;;;;0.50;102790.00;;;;10462539;28;20220;-75
2021/03/01 02:50:49;;;;;;;37.50;22.40;;;;;0.50;102785.00;;;;10445485;28;20217;-75
2021/03/01 02:55:51;;;;;;;38.83;22.83;;;;;0.40;102784.00;;;;10479102;28;20209;-75
2021/03/01 03:00:54;;;;;;;36.43;22.87;;;;;0.30;102782.00;;;;10462144;28;20212;-75
2021/03/01 03:05:56;;;;;;;34.43;21.73;;;;;0.20;102786.00;;;;10462408;28;20575;-75
2021/03/01 03:10:59;;;;;;;37.43;21.50;;;;;0.20;102789.00;;;;10461441;28;20609;-75
2021/03/01 03:16:04;;;;;;;37.10;23.13;;;;;0.10;102775.00;;;;10477876;28;20648;-75
2021/03/01 03:21:06;;;;;;;37.13;22.73;;;;;0.10;102785.00;;;;10461664;28;20192;-75
2021/03/01 03:26:07;;;;;;;36.43;22.03;;;;;0.00;102779.00;;;;10462189;28;20194;-75
2021/03/01 03:31:10;;;;;;;37.60;22.80;;;;;0.00;102778.00;;;;10445130;28;20213;-75
2021/03/01 03:36:12;;;;;;;36.03;22.63;;;;;-0.10;102764.00;;;;10461542;28;20259;-75
2021/03/01 03:41:16;;;;;;;39.17;22.73;;;;;-0.10;102763.00;;;;10421901;28;20190;-75
2021/03/01 03:46:19;;;;;;;37.70;22.80;;;;;-0.20;102766.00;;;;10443898;28;20206;-75
2021/03/01 03:51:24;;;;;;;39.47;22.63;;;;;-0.20;102764.00;;;;10460023;28;20725;-75
2021/03/01 03:56:28;;;;;;;36.27;22.20;;;;;-0.30;102770.00;;;;10426945;28;20256;-75
2021/03/01 04:01:33;;;;;;;36.03;22.73;;;;;-0.30;102774.00;;;;10460293;28;20587;-75
2021/03/01 04:06:40;;;;;;;37.77;21.67;;;;;-0.40;102769.00;;;;10443525;28;20194;-75
2021/03/01 04:11:46;;;;;;;35.63;21.87;;;;;-0.50;102769.00;;;;10426764;28;20515;-75
2021/03/01 04:16:51;;;;;;;33.93;21.37;;;;;-0.50;102772.00;;;;10409733;28;20240;-75
2021/03/01 04:21:55;;;;;;;40.43;22.70;;;;;-0.60;102774.00;;;;10459303;28;20236;-75
2021/03/01 04:26:59;;;;;;;38.57;20.43;;;;;-0.60;102766.00;;;;10442484;28;20198;-75
2021/03/01 04:32:03;;;;;;;33.40;19.27;;;;;-0.70;102769.00;;;;10458063;28;20206;-75
2021/03/01 04:37:04;;;;;;;31.23;18.97;;;;;-0.70;102769.00;;;;10466482;28;20194;-75
2021/03/01 04:42:06;;;;;;;48.60;23.70;;;;;-0.70;102770.00;;;;10466415;28;20186;-75
2021/03/01 04:47:09;;;;;;;69.83;28.30;;;;;-0.60;102761.00;;;;10482661;28;20205;-75
2021/03/01 04:52:13;;;;;;;221.00;42.50;;;;;-0.40;102770.00;;;;10481689;28;20260;-75
2021/03/01 04:57:16;;;;;;;213.50;41.17;;;;;-0.10;102771.00;;;;10449405;28;20206;-75
2021/03/01 05:02:20;;;;;;;242.23;48.30;;;;;0.10;102766.00;;;;10449100;28;20719;-75
2021/03/01 05:07:24;;;;;;;252.60;48.70;;;;;0.30;102766.00;;;;10461337;28;20752;-75
2021/03/01 05:12:25;;;;;;;206.73;50.63;;;;;0.40;102764.00;;;;10456877;28;20701;-75
2021/03/01 05:17:27;;;;;;;207.13;52.33;;;;;0.60;102769.00;;;;10457358;28;20204;-75
2021/03/01 05:22:29;;;;;;;200.47;55.40;;;;;0.80;102762.00;;;;10439799;28;20277;-75
2021/03/01 05:27:32;;;;;;;142.80;48.40;;;;;0.90;102771.00;;;;10423227;28;20195;-75
2021/03/01 05:32:33;;;;;;;189.87;64.30;;;;;1.10;102774.00;;;;10423118;28;20210;-75
2021/03/01 05:37:35;;;;;;;255.50;71.37;;;;;1.20;102762.00;;;;10455835;28;20190;-75
2021/03/01 05:42:46;;;;;;;228.20;72.60;;;;;1.40;102770.00;;;;10440369;28;20217;-75
2021/03/01 05:47:48;;;;;;;292.37;81.70;;;;;1.50;102776.00;;;;10422451;28;20238;-75
2021/03/01 05:52:53;;;;;;;392.73;95.70;;;;;1.60;102770.00;;;;10455139;28;20210;-75
2021/03/01 05:57:58;;;;;;;395.03;94.03;;;;;1.70;102779.00;;;;10438597;28;20246;-75
2021/03/01 06:03:02;;;;;;;347.60;92.70;;;;;1.80;102778.00;;;;10455339;28;20183;-75
2021/03/01 06:08:05;;;;;;;369.07;96.90;;;;;1.90;102783.00;;;;10431273;28;20268;-75
2021/03/01 06:13:07;;;;;;;395.70;100.40;;;;;1.90;102791.00;;;;10447111;28;20209;-75
2021/03/01 06:18:10;;;;;;;387.83;95.27;;;;;2.00;102788.00;;;;10480139;28;20239;-75
2021/03/01 06:23:28;;;;;;;379.17;100.70;;;;;2.10;102786.00;;;;10497062;28;20653;-75
2021/03/01 06:28:30;;;;;;;364.73;93.37;;;;;2.20;102795.00;;;;10446476;28;20246;-75
2021/03/01 06:33:31;;;;;;;395.13;100.03;;;;;2.30;102792.00;;;;10479635;28;20201;-75
2021/03/01 06:38:34;;;;;;;391.83;98.90;;;;;2.30;102792.00;;;;10482346;28;20255;-75
2021/03/01 06:43:39;;;;;;;368.47;91.07;;;;;2.40;102801.00;;;;10437984;28;20182;-75
2021/03/01 06:48:41;;;;;;;389.03;98.43;;;;;2.50;102801.00;;;;10404901;28;20198;-75
2021/03/01 06:53:43;;;;;;;372.37;90.07;;;;;2.60;102802.00;;;;10404473;28;20267;-75
2021/03/01 06:58:46;;;;;;;383.27;95.63;;;;;2.70;102810.00;;;;10438088;28;20621;-75
2021/03/01 07:04:02;;;;;;;401.80;92.70;;;;;2.80;102798.00;;;;10489225;28;20196;-75
2021/03/01 07:09:12;;;;;;;339.03;86.73;;;;;2.90;102794.00;;;;10467898;28;20193;-75
2021/03/01 07:14:15;;;;;;;350.30;84.87;;;;;2.90;102798.00;;;;10446119;28;20610;-75
2021/03/01 07:19:28;;;;;;;322.17;82.43;;;;;3.00;102811.00;;;;10485578;28;20418;-75
2021/03/01 07:24:30;;;;;;;346.80;80.67;;;;;3.10;102797.00;;;;10504253;28;20194;-75
2021/03/01 07:29:38;;;;;;;339.20;81.97;;;;;3.20;102805.00;;;;10486465;28;20190;-75
2021/03/01 07:34:59;;;;;;;322.40;76.93;;;;;3.30;102808.00;;;;10489049;28;20274;-75
2021/03/01 07:40:08;;;;;;;316.03;72.87;;;;;3.40;102804.00;;;;10485799;28;20208;-75
2021/03/01 07:45:11;;;;;;;313.57;77.87;;;;;3.40;102805.00;;;;10452116;28;20209;-75
2021/03/01 07:50:32;;;;;;;322.87;70.57;;;;;3.60;102811.00;;;;10469474;28;20194;-75
2021/03/01 07:55:33;;;;;;;277.53;68.97;;;;;3.70;102804.00;;;;10452467;28;20217;-76
2021/03/01 08:00:35;;;;;;;241.93;61.37;;;;;3.70;102804.00;;;;10467611;28;20314;-76
2021/03/01 08:05:37;;;;;;;253.43;65.27;;;;;3.70;102819.00;;;;10467737;28;20198;-76
2021/03/01 08:10:39;;;;;;;247.73;69.57;;;;;3.80;102815.00;;;;10467364;28;20197;-76
2021/03/01 08:15:43;;;;;;;238.97;62.63;;;;;3.90;102820.00;;;;10468034;28;20201;-76
2021/03/01 08:20:53;;;;;;;232.20;62.13;;;;;4.10;102818.00;;;;10450742;28;20190;-76
2021/03/01 08:25:57;;;;;;;229.17;61.77;;;;;4.20;102823.00;;;;10461131;28;20206;-76
2021/03/01 08:31:08;;;;;;;191.53;58.57;;;;;4.30;102818.00;;;;10425374;28;20246;-76
2021/03/01 08:36:18;;;;;;;169.50;54.97;;;;;4.50;102834.00;;;;10409552;28;20194;-76
2021/03/01 08:41:42;;;;;;;157.77;52.43;;;;;4.60;102823.00;;;;10479035;28;20649;-76
2021/03/01 08:46:43;;;;;;;170.93;52.63;;;;;4.70;102829.00;;;;10466827;28;20599;-76
2021/03/01 08:51:45;;;;;;;173.60;57.43;;;;;4.70;102827.00;;;;10466266;28;20263;-76
2021/03/01 08:57:06;;;;;;;144.10;49.63;;;;;5.00;102832.00;;;;10449704;28;20236;-76
2021/03/01 09:02:07;;;;;;;131.07;50.53;;;;;5.10;102832.00;;;;10466047;28;20239;-76
2021/03/01 09:07:09;;;;;;;140.00;50.03;;;;;5.30;102835.00;;;;10449581;28;20197;-76
2021/03/01 09:12:16;;;;;;;128.17;46.67;;;;;5.40;102837.00;;;;10481929;28;20729;-76
2021/03/01 09:17:18;;;;;;;108.70;42.07;;;;;5.70;102826.00;;;;10449118;28;20204;-76
2021/03/01 09:22:20;;;;;;;119.90;45.33;;;;;6.10;102835.00;;;;10464789;28;20665;-74
2021/03/01 09:27:31;;;;;;;104.57;41.57;;;;;6.40;102834.00;;;;10465154;28;20228;-75
2021/03/01 09:32:33;;;;;;;104.30;41.83;;;;;6.60;102836.00;;;;10464322;28;20292;-75
2021/03/01 09:37:35;;;;;;;96.97;40.67;;;;;6.70;102843.00;;;;10480735;28;20194;-75
2021/03/01 09:42:37;;;;;;;89.93;36.37;;;;;6.70;102831.00;;;;10480154;28;20201;-75
2021/03/01 09:47:39;;;;;;;78.80;32.43;;;;;6.80;102841.00;;;;10464070;28;20201;-75
2021/03/01 09:52:41;;;;;;;96.43;38.23;;;;;7.10;102824.00;;;;10498350;28;20213;-75
2021/03/01 09:57:42;;;;;;;78.77;33.40;;;;;7.40;102829.00;;;;10478611;28;20210;-75
2021/03/01 10:02:56;;;;;;;81.83;35.97;;;;;7.60;102830.00;;;;10455752;28;20224;-75
2021/03/01 10:08:03;;;;;;;90.80;38.00;;;;;7.50;102830.00;;;;10431721;28;20296;-76
2021/03/01 10:13:06;;;;;;;84.20;37.43;;;;;8.00;102817.00;;;;10480230;28;20205;-75
2021/03/01 10:18:11;;;;;;;77.30;39.63;;;;;8.70;102803.00;;;;10480109;28;20205;-75
2021/03/01 10:23:24;;;;;;;89.03;38.87;;;;;9.70;102803.00;;;;10438780;28;20281;-75
2021/03/01 10:28:36;;;;;;;75.97;38.57;;;;;10.60;102804.00;;;;10458418;28;20193;-76
2021/03/01 10:33:48;;;;;;;81.07;36.90;;;;;10.20;102793.00;;;;10446364;28;20253;-76
2021/03/01 10:38:49;;;;;;;74.90;35.93;;;;;9.40;102800.00;;;;10478775;28;20193;-75
2021/03/01 10:43:56;;;;;;;77.23;37.60;;;;;9.50;102793.00;;;;10446740;28;20182;-75
2021/03/01 10:48:59;;;;;;;83.27;38.97;;;;;9.30;102784.00;;;;10461986;28;20209;-76
2021/03/01 10:54:04;;;;;;;76.07;37.20;;;;;9.40;102793.00;;;;10485833;28;20228;-76
2021/03/01 10:59:06;;;;;;;81.87;37.87;;;;;9.20;102794.00;;;;10486771;28;20217;-76
2021/03/01 11:04:08;;;;;;;83.30;38.57;;;;;10.10;102782.00;;;;10449132;28;20660;-76
2021/03/01 11:09:10;;;;;;;68.33;34.53;;;;;10.80;102776.00;;;;10448204;28;20197;-76
2021/03/01 11:14:12;;;;;;;69.43;34.33;;;;;11.10;102764.00;;;;10469893;28;20209;-76
2021/03/01 11:19:15;;;;;;;71.70;35.93;;;;;11.40;102772.00;;;;10470066;28;20243;-76
2021/03/01 11:24:22;;;;;;;74.00;38.17;;;;;11.80;102760.00;;;;10469966;28;20201;-76
2021/03/01 11:29:23;;;;;;;74.47;38.67;;;;;12.10;102759.00;;;;10486489;28;20209;-76
2021/03/01 11:34:30;;;;;;;74.33;37.80;;;;;12.40;102755.00;;;;10454600;28;20301;-76
2021/03/01 11:39:31;;;;;;;85.13;43.27;;;;;12.50;102747.00;;;;10483051;28;20680;-76
2021/03/01 11:44:33;;;;;;;87.77;42.83;;;;;12.60;102733.00;;;;10468230;28;20215;-76
2021/03/01 11:49:34;;;;;;;86.40;41.43;;;;;12.70;102718.00;;;;10468506;28;20235;-76
2021/03/01 11:54:36;;;;;;;81.90;42.87;;;;;12.90;102724.00;;;;10484406;28;20224;-76
2021/03/01 11:59:37;;;;;;;81.03;41.93;;;;;12.90;102701.00;;;;10502521;28;20189;-76
2021/03/01 12:04:38;;;;;;;85.10;43.73;;;;;13.00;102706.00;;;;10423763;28;20235;-76
2021/03/01 12:09:42;;;;;;;81.40;42.37;;;;;13.10;102689.00;;;;10461060;28;20201;-76
2021/03/01 12:14:43;;;;;;;85.43;43.50;;;;;13.00;102681.00;;;;10436348;28;20982;-76
2021/03/01 12:19:44;;;;;;;91.73;45.70;;;;;13.20;102680.00;;;;10467183;28;20193;-76
2021/03/01 12:24:46;;;;;;;91.27;44.87;;;;;13.40;102678.00;;;;10467908;28;20231;-76
2021/03/01 12:29:47;;;;;;;91.17;45.87;;;;;13.40;102666.00;;;;10451125;28;20276;-76
2021/03/01 12:34:49;;;;;;;86.47;43.23;;;;;13.50;102668.00;;;;10437756;28;20301;-76
2021/03/01 12:39:50;;;;;;;82.37;42.40;;;;;13.70;102666.00;;;;10466976;28;20757;-76
2021/03/01 12:44:52;;;;;;;84.37;44.90;;;;;13.90;102660.00;;;;10449782;28;20315;-76
2021/03/01 12:49:53;;;;;;;86.47;44.97;;;;;14.10;102651.00;;;;10466287;28;20240;-76
2021/03/01 12:54:54;;;;;;;81.50;43.63;;;;;14.10;102647.00;;;;10449090;28;20779;-76
2021/03/01 12:59:56;;;;;;;75.60;39.00;;;;;14.20;102644.00;;;;10500171;28;20194;-76
2021/03/01 13:04:57;;;;;;;78.23;40.70;;;;;14.20;102634.00;;;;10465376;28;20190;-76
2021/03/01 13:09:59;;;;;;;72.83;38.97;;;;;14.40;102628.00;;;;10482147;28;20189;-75
2021/03/01 13:15:05;;;;;;;80.70;39.23;;;;;14.60;102608.00;;;;10464813;28;20229;-77
2021/03/01 13:20:07;;;;;;;79.17;41.60;;;;;14.50;102607.00;;;;10464900;28;20194;-75
2021/03/01 13:25:09;;;;;;;70.00;38.97;;;;;14.70;102603.00;;;;10432105;28;20824;-75
2021/03/01 13:30:11;;;;;;;67.47;37.33;;;;;14.80;102600.00;;;;10464601;28;20193;-75
2021/03/01 13:35:32;;;;;;;67.67;37.30;;;;;14.90;102591.00;;;;10484156;28;20699;-75
2021/03/01 13:40:34;;;;;;;71.23;37.83;;;;;14.80;102584.00;;;;10480780;28;20706;-75
2021/03/01 13:45:35;;;;;;;65.87;36.30;;;;;14.80;102582.00;;;;10447216;28;20197;-75
2021/03/01 13:50:37;;;;;;;62.13;35.63;;;;;15.00;102568.00;;;;10464050;28;20185;-75
2021/03/01 13:55:49;;;;;;;63.90;36.03;;;;;15.00;102559.00;;;;10466507;28;20219;-75
2021/03/01 14:00:50;;;;;;;67.37;37.57;;;;;15.20;102554.00;;;;10480163;28;20224;-75
2021/03/01 14:05:53;;;;;;;72.13;37.30;;;;;15.30;102549.00;;;;10498116;28;20239;-75
2021/03/01 14:10:54;;;;;;;67.17;36.40;;;;;15.70;102546.00;;;;10463404;28;20301;-75
2021/03/01 14:15:56;;;;;;;63.40;34.30;;;;;16.10;102534.00;;;;10480060;28;20262;-76
2021/03/01 14:20:58;;;;;;;61.17;35.07;;;;;16.50;102534.00;;;;10446070;28;20285;-76
2021/03/01 14:26:02;;;;;;;63.37;35.40;;;;;17.10;102530.00;;;;10436798;28;20616;-76
2021/03/01 14:31:04;;;;;;;70.43;38.13;;;;;16.90;102530.00;;;;10438902;28;20190;-76
2021/03/01 14:36:07;;;;;;;62.70;35.07;;;;;17.50;102519.00;;;;10421594;28;21031;-76
2021/03/01 14:41:08;;;;;;;61.70;33.40;;;;;17.20;102510.00;;;;10462923;28;20623;-75
2021/03/01 14:46:11;;;;;;;54.63;30.60;;;;;17.70;102507.00;;;;10479255;28;20208;-75
2021/03/01 14:51:13;;;;;;;46.20;28.20;;;;;18.40;102501.00;;;;10462103;28;20190;-75
2021/03/01 14:56:14;;;;;;;44.60;27.13;;;;;19.80;102478.00;;;;10461843;28;20346;-75
2021/03/01 15:01:15;;;;;;;49.83;30.40;;;;;20.60;102462.00;;;;10462331;28;20607;-76
2021/03/01 15:06:17;;;;;;;47.83;29.90;;;;;19.60;102474.00;;;;10445579;28;20198;-75
2021/03/01 15:11:18;;;;;;;46.27;29.67;;;;;18.60;102459.00;;;;10478582;28;20271;-75
2021/03/01 15:16:19;;;;;;;45.73;29.87;;;;;19.20;102452.00;;;;10444929;28;20193;-75
2021/03/01 15:21:21;;;;;;;53.72;31.95;;;;;18.10;102481.00;;;;10461733;28;20641;-75
2021/03/01 15:26:22;;;;;;;48.33;29.97;;;;;17.40;102447.00;;;;10445111;28;20649;-75
2021/03/01 15:31:24;;;;;;;52.07;32.83;;;;;18.80;102416.00;;;;10444902;28;20210;-75
2021/03/01 15:36:25;;;;;;;44.60;28.70;;;;;17.70;102460.00;;;;10445953;28;20663;-75
2021/03/01 15:41:29;;;;;;;47.47;28.80;;;;;15.90;102471.00;;;;10485588;28;20197;-75
2021/03/01 15:46:30;;;;;;;52.10;30.47;;;;;14.70;102466.00;;;;10484717;28;20197;-75
2021/03/01 15:51:32;;;;;;;56.77;32.97;;;;;14.40;102473.00;;;;10468004;28;20202;-76
2021/03/01 15:56:33;;;;;;;52.70;33.90;;;;;14.00;102463.00;;;;10468072;28;20263;-75
2021/03/01 16:01:35;;;;;;;55.67;32.90;;;;;14.00;102460.00;;;;10444082;28;20191;-76
2021/03/01 16:06:36;;;;;;;53.37;31.90;;;;;13.40;102468.00;;;;10442782;28;20248;-75
2021/03/01 16:11:38;;;;;;;58.10;35.23;;;;;12.80;102468.00;;;;10483331;28;20213;-75
2021/03/01 16:16:40;;;;;;;60.17;36.07;;;;;12.40;102452.00;;;;10467190;28;20293;-75
2021/03/01 16:21:42;;;;;;;64.40;37.30;;;;;12.10;102456.00;;;;10467112;28;20190;-75
2021/03/01 16:26:43;;;;;;;60.97;36.27;;;;;11.90;102453.00;;;;10467693;28;20246;-75
2021/03/01 16:31:44;;;;;;;62.27;34.73;;;;;11.70;102447.00;;;;10467089;28;20244;-75
2021/03/01 16:36:46;;;;;;;63.47;36.27;;;;;11.50;102457.00;;;;10441775;28;20248;-76
2021/03/01 16:41:47;;;;;;;64.90;34.73;;;;;11.30;102443.00;;;;10459023;28;20205;-75
2021/03/01 16:46:54;;;;;;;61.30;34.53;;;;;11.10;102443.00;;;;10424559;28;20210;-76
2021/03/01 16:51:55;;;;;;;72.90;36.97;;;;;10.90;102444.00;;;;10440827;28;20656;-75
2021/03/01 16:57:15;;;;;;;64.43;34.93;;;;;10.70;102444.00;;;;10457860;28;20305;-76
2021/03/01 17:02:18;;;;;;;66.33;37.23;;;;;10.50;102442.00;;;;10440586;28;20221;-75
2021/03/01 17:07:30;;;;;;;65.90;36.57;;;;;10.30;102441.00;;;;10429080;28;20220;-75
2021/03/01 17:12:44;;;;;;;68.40;36.27;;;;;10.10;102440.00;;;;10448684;28;20209;-75
2021/03/01 17:17:46;;;;;;;70.40;37.77;;;;;9.90;102446.00;;;;10482027;28;20552;-75
2021/03/01 17:22:50;;;;;;;63.27;35.03;;;;;9.70;102460.00;;;;10465328;28;20194;-75
2021/03/01 17:27:53;;;;;;;66.47;35.87;;;;;9.50;102457.00;;;;10448178;28;20222;-76
2021/03/01 17:33:02;;;;;;;64.60;35.23;;;;;9.30;102448.00;;;;10464220;28;20206;-76
2021/03/01 17:38:04;;;;;;;73.10;37.07;;;;;9.10;102459.00;;;;10470230;28;20908;-76
2021/03/01 17:43:18;;;;;;;71.87;36.73;;;;;9.00;102462.00;;;;10422877;28;20171;-76
2021/03/01 17:48:23;;;;;;;74.00;38.33;;;;;8.80;102475.00;;;;10405972;28;20278;-76
2021/03/01 17:53:30;;;;;;;67.57;37.43;;;;;8.60;102476.00;;;;10422479;28;20241;-76
2021/03/01 17:59:05;;;;;;;68.63;36.37;;;;;8.40;102469.00;;;;10422486;28;20305;-76
2021/03/01 18:04:08;;;;;;;68.73;37.13;;;;;8.20;102476.00;;;;10438960;28;20190;-76
2021/03/01 18:09:12;;;;;;;70.53;35.63;;;;;8.10;102482.00;;;;10422020;28;20246;-76
2021/03/01 18:14:13;;;;;;;70.67;36.60;;;;;7.90;102486.00;;;;10438121;28;20233;-76
2021/03/01 18:19:19;;;;;;;76.23;38.20;;;;;7.80;102489.00;;;;10421998;28;20186;-76
2021/03/01 18:24:21;;;;;;;82.47;41.63;;;;;7.80;102487.00;;;;10420974;28;20220;-76
2021/03/01 18:29:24;;;;;;;79.23;40.60;;;;;7.70;102482.00;;;;10438631;28;20214;-76
2021/03/01 18:34:33;;;;;;;78.13;40.57;;;;;7.60;102482.00;;;;10420891;28;20719;-76
2021/03/01 18:39:39;;;;;;;77.13;38.97;;;;;7.60;102487.00;;;;10461139;28;20205;-76
2021/03/01 18:44:40;;;;;;;78.43;38.03;;;;;7.50;102491.00;;;;10462197;28;20686;-76
2021/03/01 18:49:42;;;;;;;73.73;37.03;;;;;7.40;102496.00;;;;10462002;28;20197;-76
2021/03/01 18:54:43;;;;;;;73.73;39.07;;;;;7.20;102486.00;;;;10461951;28;20213;-77
2021/03/01 18:59:44;;;;;;;77.10;35.90;;;;;7.10;102479.00;;;;10461740;28;20652;-77
2021/03/01 19:04:47;;;;;;;71.90;35.07;;;;;7.10;102492.00;;;;10440183;28;20190;-77
2021/03/01 19:09:48;;;;;;;68.83;36.40;;;;;7.00;102481.00;;;;10454508;28;20657;-77
2021/03/01 19:14:50;;;;;;;67.80;33.73;;;;;6.90;102488.00;;;;10426420;28;20284;-77
2021/03/01 19:19:51;;;;;;;69.23;33.70;;;;;6.70;102488.00;;;;10444549;28;20190;-77
2021/03/01 19:24:52;;;;;;;61.17;33.23;;;;;6.60;102481.00;;;;10444024;28;20598;-77
2021/03/01 19:29:54;;;;;;;63.73;34.17;;;;;6.50;102485.00;;;;10428117;28;20210;-77
2021/03/01 19:34:55;;;;;;;64.90;34.63;;;;;6.40;102489.00;;;;10444651;28;20210;-76
2021/03/01 19:39:56;;;;;;;63.40;32.80;;;;;6.30;102482.00;;;;10444647;28;20584;-77
2021/03/01 19:44:58;;;;;;;74.43;35.33;;;;;6.10;102492.00;;;;10427635;28;20616;-77
2021/03/01 19:49:59;;;;;;;68.20;36.17;;;;;6.00;102491.00;;;;10443417;28;20691;-77
2021/03/01 19:55:05;;;;;;;71.50;34.90;;;;;5.90;102488.00;;;;10444206;28;20241;-77
2021/03/01 20:00:08;;;;;;;63.50;33.57;;;;;5.80;102497.00;;;;10426822;28;20195;-76
2021/03/01 20:05:13;;;;;;;72.30;34.63;;;;;5.80;102491.00;;;;10444203;28;20190;-77
2021/03/01 20:10:15;;;;;;;77.53;35.53;;;;;5.70;102497.00;;;;10443182;28;20221;-77
2021/03/01 20:15:17;;;;;;;70.50;36.93;;;;;5.60;102492.00;;;;10460970;28;20251;-77
2021/03/01 20:20:21;;;;;;;68.97;35.27;;;;;5.50;102495.00;;;;10426696;28;20198;-77
2021/03/01 20:25:22;;;;;;;70.30;33.73;;;;;5.50;102501.00;;;;10441779;28;20244;-77
2021/03/01 20:30:24;;;;;;;64.70;32.37;;;;;5.40;102492.00;;;;10425675;28;20197;-77
2021/03/01 20:35:25;;;;;;;67.37;32.73;;;;;5.30;102497.00;;;;10409063;28;20301;-76
2021/03/01 20:40:27;;;;;;;63.70;32.63;;;;;5.20;102499.00;;;;10471914;28;20225;-76
2021/03/01 20:45:28;;;;;;;62.43;31.70;;;;;5.10;102503.00;;;;10466728;28;20722;-76
2021/03/01 20:50:29;;;;;;;58.60;31.17;;;;;5.00;102506.00;;;;10483090;28;20594;-76
2021/03/01 20:55:31;;;;;;;61.20;29.83;;;;;4.90;102509.00;;;;10482421;28;20251;-76
2021/03/01 21:00:32;;;;;;;63.10;30.93;;;;;4.80;102504.00;;;;10482704;28;20177;-76
2021/03/01 21:05:34;;;;;;;59.77;30.37;;;;;4.70;102504.00;;;;10449385;28;20198;-76
2021/03/01 21:10:35;;;;;;;58.23;29.67;;;;;4.60;102505.00;;;;10482654;28;20246;-76
2021/03/01 21:15:38;;;;;;;59.87;29.57;;;;;4.50;102512.00;;;;10466009;28;20253;-76
2021/03/01 21:20:41;;;;;;;65.47;31.03;;;;;4.40;102518.00;;;;10482160;28;20813;-76
2021/03/01 21:25:45;;;;;;;65.80;31.50;;;;;4.30;102519.00;;;;10481309;28;20182;-76
2021/03/01 21:30:52;;;;;;;70.10;34.53;;;;;4.10;102519.00;;;;10481240;28;20193;-76
2021/03/01 21:35:53;;;;;;;78.50;36.63;;;;;4.00;102516.00;;;;10480989;28;20601;-76
2021/03/01 21:40:54;;;;;;;83.27;37.67;;;;;3.90;102514.00;;;;10413853;28;20209;-76
2021/03/01 21:45:56;;;;;;;79.23;37.37;;;;;3.80;102519.00;;;;10406532;28;20284;-76
2021/03/01 21:50:59;;;;;;;85.97;40.07;;;;;3.70;102525.00;;;;10422540;28;20242;-76
2021/03/01 21:56:03;;;;;;;84.53;38.87;;;;;3.70;102522.00;;;;10456932;28;20304;-76
2021/03/01 22:01:04;;;;;;;99.23;40.83;;;;;3.60;102530.00;;;;10422839;28;20288;-76
2021/03/01 22:06:08;;;;;;;90.77;38.43;;;;;3.70;102532.00;;;;10421956;28;20185;-76
2021/03/01 22:11:09;;;;;;;95.50;43.20;;;;;3.60;102524.00;;;;10406060;28;20194;-76
2021/03/01 22:16:30;;;;;;;93.73;43.27;;;;;3.50;102539.00;;;;10424134;28;20549;-76
2021/03/01 22:21:33;;;;;;;86.17;40.70;;;;;3.50;102526.00;;;;10405539;28;20236;-76
2021/03/01 22:26:47;;;;;;;78.63;32.83;;;;;3.40;102521.00;;;;10421718;28;20190;-76
2021/03/01 22:32:02;;;;;;;69.23;32.87;;;;;3.20;102522.00;;;;10421276;28;20217;-76
2021/03/01 22:37:09;;;;;;;72.47;32.30;;;;;3.10;102521.00;;;;10421380;28;20193;-76
2021/03/01 22:42:11;;;;;;;73.80;35.60;;;;;3.00;102523.00;;;;10421297;28;20194;-76
2021/03/01 22:47:14;;;;;;;71.70;33.20;;;;;3.00;102524.00;;;;10439593;28;20206;-76
2021/03/01 22:52:16;;;;;;;84.03;36.93;;;;;2.90;102520.00;;;;10446228;28;20297;-76
2021/03/01 22:57:20;;;;;;;92.07;41.03;;;;;2.90;102518.00;;;;10413170;28;20237;-76
2021/03/01 23:02:21;;;;;;;85.93;38.03;;;;;2.90;102519.00;;;;10445472;28;20198;-75
2021/03/01 23:07:23;;;;;;;82.83;38.00;;;;;2.80;102523.00;;;;10418219;28;20193;-75
2021/03/01 23:12:24;;;;;;;80.67;36.57;;;;;2.70;102529.00;;;;10453837;28;20202;-76
2021/03/01 23:17:26;;;;;;;73.93;33.47;;;;;2.70;102528.00;;;;10469980;28;20190;-75
2021/03/01 23:22:28;;;;;;;70.73;30.87;;;;;2.60;102521.00;;;;10471019;28;20213;-76
2021/03/01 23:27:30;;;;;;;64.67;29.90;;;;;2.50;102518.00;;;;10486236;28;20226;-76
2021/03/01 23:32:32;;;;;;;64.50;28.43;;;;;2.40;102530.00;;;;10486337;28;20212;-76
2021/03/01 23:37:35;;;;;;;65.50;29.13;;;;;2.20;102521.00;;;;10486173;28;20193;-76
2021/03/01 23:42:39;;;;;;;67.27;28.50;;;;;2.10;102526.00;;;;10485904;28;20197;-76
2021/03/01 23:47:41;;;;;;;65.50;28.20;;;;;2.10;102520.00;;;;10485580;28;20201;-76
2021/03/01 23:52:45;;;;;;;73.67;28.80;;;;;2.00;102522.00;;;;10452271;28;20213;-76
2021/03/01 23:57:47;;;;;;;70.43;30.83;;;;;2.00;102517.00;;;;10485074;28;20271;-76
